sensor_id;sensor_type;location;lat;lon;timestamp;P1;durP1;ratioP1;P2;durP2;ratioP2
65863;SDS011;52639;51.180;20.460;2023-03-31T00:02:21;35.65;;;19.00;;
65863;SDS011;52639;51.180;20.460;2023-03-31T00:06:25;37.03;;;19.88;;
65863;SDS011;52639;51.180;20.460;2023-03-31T00:10:28;37.75;;;20.13;;
65863;SDS011;52639;51.180;20.460;2023-03-31T00:14:33;41.08;;;18.90;;
65863;SDS011;52639;51.180;20.460;2023-03-31T00:18:36;26.40;;;15.55;;
65863;SDS011;52639;51.180;20.460;2023-03-31T00:22:42;30.80;;;17.75;;
65863;SDS011;52639;51.180;20.460;2023-03-31T00:26:46;35.70;;;18.75;;
65863;SDS011;52639;51.180;20.460;2023-03-31T00:30:49;32.63;;;17.17;;
65863;SDS011;52639;51.180;20.460;2023-03-31T00:34:53;21.77;;;12.73;;
65863;SDS011;52639;51.180;20.460;2023-03-31T00:38:57;31.83;;;15.30;;
65863;SDS011;52639;51.180;20.460;2023-03-31T00:43:02;27.40;;;18.00;;
65863;SDS011;52639;51.180;20.460;2023-03-31T00:47:05;26.80;;;15.10;;
65863;SDS011;52639;51.180;20.460;2023-03-31T00:51:14;29.05;;;16.88;;
65863;SDS011;52639;51.180;20.460;2023-03-31T00:55:20;32.35;;;18.30;;
65863;SDS011;52639;51.180;20.460;2023-03-31T00:59:28;27.60;;;16.38;;
65863;SDS011;52639;51.180;20.460;2023-03-31T01:03:34;29.80;;;18.02;;
65863;SDS011;52639;51.180;20.460;2023-03-31T01:07:38;30.30;;;17.45;;
65863;SDS011;52639;51.180;20.460;2023-03-31T01:11:45;33.47;;;19.00;;
65863;SDS011;52639;51.180;20.460;2023-03-31T01:15:49;34.00;;;17.67;;
65863;SDS011;52639;51.180;20.460;2023-03-31T01:19:56;31.40;;;17.25;;
65863;SDS011;52639;51.180;20.460;2023-03-31T01:28:51;28.73;;;15.73;;
65863;SDS011;52639;51.180;20.460;2023-03-31T01:33:08;27.02;;;15.23;;
65863;SDS011;52639;51.180;20.460;2023-03-31T01:42:03;24.73;;;14.65;;
65863;SDS011;52639;51.180;20.460;2023-03-31T01:46:15;20.60;;;11.95;;
65863;SDS011;52639;51.180;20.460;2023-03-31T01:50:30;22.92;;;12.32;;
65863;SDS011;52639;51.180;20.460;2023-03-31T01:54:41;23.63;;;13.63;;
65863;SDS011;52639;51.180;20.460;2023-03-31T01:58:53;20.90;;;12.43;;
65863;SDS011;52639;51.180;20.460;2023-03-31T02:03:01;21.08;;;12.88;;
65863;SDS011;52639;51.180;20.460;2023-03-31T02:07:08;27.98;;;16.20;;
65863;SDS011;52639;51.180;20.460;2023-03-31T02:11:17;22.52;;;14.60;;
65863;SDS011;52639;51.180;20.460;2023-03-31T02:15:25;18.40;;;11.57;;
65863;SDS011;52639;51.180;20.460;2023-03-31T02:19:32;22.63;;;11.35;;
65863;SDS011;52639;51.180;20.460;2023-03-31T02:23:40;29.63;;;17.15;;
65863;SDS011;52639;51.180;20.460;2023-03-31T02:27:45;20.13;;;12.00;;
65863;SDS011;52639;51.180;20.460;2023-03-31T02:31:55;27.02;;;19.00;;
65863;SDS011;52639;51.180;20.460;2023-03-31T02:36:02;21.63;;;13.95;;
65863;SDS011;52639;51.180;20.460;2023-03-31T02:40:08;20.65;;;11.85;;
65863;SDS011;52639;51.180;20.460;2023-03-31T02:44:13;20.00;;;11.77;;
65863;SDS011;52639;51.180;20.460;2023-03-31T02:48:20;24.70;;;13.48;;
65863;SDS011;52639;51.180;20.460;2023-03-31T02:52:31;29.13;;;15.65;;
65863;SDS011;52639;51.180;20.460;2023-03-31T02:56:56;23.58;;;13.70;;
65863;SDS011;52639;51.180;20.460;2023-03-31T03:01:21;23.33;;;13.80;;
65863;SDS011;52639;51.180;20.460;2023-03-31T03:05:37;22.58;;;12.23;;
65863;SDS011;52639;51.180;20.460;2023-03-31T03:09:52;28.20;;;14.15;;
65863;SDS011;52639;51.180;20.460;2023-03-31T03:14:03;26.13;;;14.35;;
65863;SDS011;52639;51.180;20.460;2023-03-31T03:18:15;26.98;;;14.18;;
65863;SDS011;52639;51.180;20.460;2023-03-31T03:22:20;38.65;;;23.20;;
65863;SDS011;52639;51.180;20.460;2023-03-31T03:26:23;27.55;;;15.95;;
65863;SDS011;52639;51.180;20.460;2023-03-31T03:30:27;26.13;;;15.35;;
65863;SDS011;52639;51.180;20.460;2023-03-31T03:34:30;30.23;;;17.48;;
65863;SDS011;52639;51.180;20.460;2023-03-31T03:38:35;25.02;;;12.88;;
65863;SDS011;52639;51.180;20.460;2023-03-31T03:42:37;23.10;;;15.25;;
65863;SDS011;52639;51.180;20.460;2023-03-31T03:46:40;52.85;;;32.17;;
65863;SDS011;52639;51.180;20.460;2023-03-31T03:50:43;35.63;;;20.95;;
65863;SDS011;52639;51.180;20.460;2023-03-31T03:54:48;30.33;;;18.05;;
65863;SDS011;52639;51.180;20.460;2023-03-31T03:58:51;38.95;;;20.33;;
65863;SDS011;52639;51.180;20.460;2023-03-31T04:02:54;29.25;;;16.85;;
65863;SDS011;52639;51.180;20.460;2023-03-31T04:06:57;30.60;;;17.27;;
65863;SDS011;52639;51.180;20.460;2023-03-31T04:11:01;27.25;;;13.95;;
65863;SDS011;52639;51.180;20.460;2023-03-31T04:15:05;22.25;;;12.35;;
65863;SDS011;52639;51.180;20.460;2023-03-31T04:19:08;17.98;;;10.05;;
65863;SDS011;52639;51.180;20.460;2023-03-31T04:23:13;27.50;;;13.60;;
65863;SDS011;52639;51.180;20.460;2023-03-31T04:27:17;20.80;;;11.57;;
65863;SDS011;52639;51.180;20.460;2023-03-31T04:31:21;22.23;;;11.68;;
65863;SDS011;52639;51.180;20.460;2023-03-31T04:35:27;19.70;;;10.88;;
65863;SDS011;52639;51.180;20.460;2023-03-31T04:39:42;17.10;;;9.13;;
65863;SDS011;52639;51.180;20.460;2023-03-31T04:43:48;16.35;;;8.95;;
65863;SDS011;52639;51.180;20.460;2023-03-31T04:47:51;16.38;;;9.25;;
65863;SDS011;52639;51.180;20.460;2023-03-31T04:51:53;16.35;;;8.45;;
65863;SDS011;52639;51.180;20.460;2023-03-31T04:55:56;14.05;;;8.30;;
65863;SDS011;52639;51.180;20.460;2023-03-31T05:00:01;15.45;;;7.95;;
65863;SDS011;52639;51.180;20.460;2023-03-31T05:04:07;15.82;;;7.75;;
65863;SDS011;52639;51.180;20.460;2023-03-31T05:08:10;16.50;;;8.02;;
65863;SDS011;52639;51.180;20.460;2023-03-31T05:12:16;13.30;;;7.60;;
65863;SDS011;52639;51.180;20.460;2023-03-31T05:16:21;14.02;;;7.30;;
65863;SDS011;52639;51.180;20.460;2023-03-31T05:20:24;11.25;;;6.72;;
65863;SDS011;52639;51.180;20.460;2023-03-31T05:24:27;10.75;;;6.32;;
65863;SDS011;52639;51.180;20.460;2023-03-31T05:28:29;10.88;;;5.82;;
65863;SDS011;52639;51.180;20.460;2023-03-31T05:32:34;12.13;;;5.47;;
65863;SDS011;52639;51.180;20.460;2023-03-31T05:36:37;11.80;;;6.13;;
65863;SDS011;52639;51.180;20.460;2023-03-31T05:40:40;9.25;;;5.03;;
65863;SDS011;52639;51.180;20.460;2023-03-31T05:44:43;9.23;;;5.22;;
65863;SDS011;52639;51.180;20.460;2023-03-31T05:48:47;12.13;;;5.40;;
65863;SDS011;52639;51.180;20.460;2023-03-31T05:52:50;9.60;;;5.05;;
65863;SDS011;52639;51.180;20.460;2023-03-31T05:56:53;9.23;;;4.88;;
65863;SDS011;52639;51.180;20.460;2023-03-31T06:01:00;9.75;;;4.57;;
65863;SDS011;52639;51.180;20.460;2023-03-31T06:05:08;8.45;;;4.22;;
65863;SDS011;52639;51.180;20.460;2023-03-31T06:09:11;8.60;;;4.97;;
65863;SDS011;52639;51.180;20.460;2023-03-31T06:13:14;10.40;;;4.63;;
65863;SDS011;52639;51.180;20.460;2023-03-31T06:17:17;10.27;;;5.10;;
65863;SDS011;52639;51.180;20.460;2023-03-31T06:21:22;9.30;;;4.40;;
65863;SDS011;52639;51.180;20.460;2023-03-31T06:25:25;8.43;;;4.38;;
65863;SDS011;52639;51.180;20.460;2023-03-31T06:29:28;9.80;;;4.65;;
65863;SDS011;52639;51.180;20.460;2023-03-31T06:33:31;8.82;;;4.65;;
65863;SDS011;52639;51.180;20.460;2023-03-31T06:37:36;10.50;;;4.78;;
65863;SDS011;52639;51.180;20.460;2023-03-31T06:41:39;10.48;;;4.32;;
65863;SDS011;52639;51.180;20.460;2023-03-31T06:45:41;9.18;;;4.45;;
65863;SDS011;52639;51.180;20.460;2023-03-31T06:49:44;12.13;;;5.20;;
65863;SDS011;52639;51.180;20.460;2023-03-31T06:53:49;7.22;;;3.85;;
65863;SDS011;52639;51.180;20.460;2023-03-31T06:57:51;13.57;;;5.07;;
65863;SDS011;52639;51.180;20.460;2023-03-31T07:01:54;11.45;;;4.80;;
65863;SDS011;52639;51.180;20.460;2023-03-31T07:05:57;9.80;;;4.60;;
65863;SDS011;52639;51.180;20.460;2023-03-31T07:10:02;13.27;;;5.15;;
65863;SDS011;52639;51.180;20.460;2023-03-31T07:14:05;10.20;;;4.32;;
65863;SDS011;52639;51.180;20.460;2023-03-31T07:18:08;10.55;;;4.68;;
65863;SDS011;52639;51.180;20.460;2023-03-31T07:22:12;9.68;;;4.65;;
65863;SDS011;52639;51.180;20.460;2023-03-31T07:26:17;7.15;;;4.10;;
65863;SDS011;52639;51.180;20.460;2023-03-31T07:30:20;8.88;;;4.60;;
65863;SDS011;52639;51.180;20.460;2023-03-31T07:34:24;8.27;;;3.70;;
65863;SDS011;52639;51.180;20.460;2023-03-31T07:38:27;8.57;;;3.70;;
65863;SDS011;52639;51.180;20.460;2023-03-31T07:42:31;7.65;;;3.63;;
65863;SDS011;52639;51.180;20.460;2023-03-31T07:46:34;7.15;;;4.15;;
65863;SDS011;52639;51.180;20.460;2023-03-31T07:50:37;7.30;;;3.72;;
65863;SDS011;52639;51.180;20.460;2023-03-31T07:54:40;8.30;;;4.13;;
65863;SDS011;52639;51.180;20.460;2023-03-31T07:58:45;6.82;;;4.18;;
65863;SDS011;52639;51.180;20.460;2023-03-31T08:02:48;9.00;;;4.32;;
65863;SDS011;52639;51.180;20.460;2023-03-31T08:06:51;9.65;;;3.95;;
65863;SDS011;52639;51.180;20.460;2023-03-31T08:10:54;7.43;;;4.25;;
65863;SDS011;52639;51.180;20.460;2023-03-31T08:15:00;8.10;;;4.32;;
65863;SDS011;52639;51.180;20.460;2023-03-31T08:19:03;6.90;;;4.20;;
65863;SDS011;52639;51.180;20.460;2023-03-31T08:23:06;6.40;;;3.83;;
65863;SDS011;52639;51.180;20.460;2023-03-31T08:27:11;10.27;;;4.22;;
65863;SDS011;52639;51.180;20.460;2023-03-31T08:31:16;8.57;;;4.13;;
65863;SDS011;52639;51.180;20.460;2023-03-31T08:35:21;8.52;;;3.70;;
65863;SDS011;52639;51.180;20.460;2023-03-31T08:39:24;7.55;;;4.43;;
65863;SDS011;52639;51.180;20.460;2023-03-31T08:43:28;7.85;;;4.20;;
65863;SDS011;52639;51.180;20.460;2023-03-31T08:47:35;13.73;;;6.25;;
65863;SDS011;52639;51.180;20.460;2023-03-31T08:51:39;9.70;;;5.35;;
65863;SDS011;52639;51.180;20.460;2023-03-31T08:55:45;6.97;;;4.10;;
65863;SDS011;52639;51.180;20.460;2023-03-31T08:59:51;8.23;;;4.00;;
65863;SDS011;52639;51.180;20.460;2023-03-31T09:04:05;8.27;;;4.57;;
65863;SDS011;52639;51.180;20.460;2023-03-31T09:08:21;6.35;;;4.10;;
65863;SDS011;52639;51.180;20.460;2023-03-31T09:12:38;7.13;;;3.65;;
65863;SDS011;52639;51.180;20.460;2023-03-31T09:16:53;6.78;;;3.85;;
65863;SDS011;52639;51.180;20.460;2023-03-31T09:21:03;11.63;;;4.25;;
65863;SDS011;52639;51.180;20.460;2023-03-31T09:25:13;10.48;;;3.80;;
65863;SDS011;52639;51.180;20.460;2023-03-31T09:29:21;8.18;;;3.42;;
65863;SDS011;52639;51.180;20.460;2023-03-31T09:33:31;8.20;;;3.25;;
65863;SDS011;52639;51.180;20.460;2023-03-31T09:37:36;5.15;;;3.00;;
65863;SDS011;52639;51.180;20.460;2023-03-31T09:41:40;7.13;;;3.03;;
65863;SDS011;52639;51.180;20.460;2023-03-31T09:45:46;7.65;;;4.05;;
65863;SDS011;52639;51.180;20.460;2023-03-31T09:49:48;7.25;;;3.47;;
65863;SDS011;52639;51.180;20.460;2023-03-31T09:53:54;5.57;;;3.10;;
65863;SDS011;52639;51.180;20.460;2023-03-31T09:58:00;7.43;;;2.70;;
65863;SDS011;52639;51.180;20.460;2023-03-31T10:02:19;6.25;;;2.70;;
65863;SDS011;52639;51.180;20.460;2023-03-31T10:06:40;6.80;;;3.38;;
65863;SDS011;52639;51.180;20.460;2023-03-31T10:10:46;4.70;;;2.30;;
65863;SDS011;52639;51.180;20.460;2023-03-31T10:14:51;6.65;;;2.67;;
65863;SDS011;52639;51.180;20.460;2023-03-31T10:18:56;4.28;;;2.50;;
65863;SDS011;52639;51.180;20.460;2023-03-31T10:23:15;6.47;;;2.60;;
65863;SDS011;52639;51.180;20.460;2023-03-31T10:27:26;5.82;;;2.55;;
65863;SDS011;52639;51.180;20.460;2023-03-31T10:31:33;4.38;;;2.50;;
65863;SDS011;52639;51.180;20.460;2023-03-31T10:35:38;9.73;;;2.88;;
65863;SDS011;52639;51.180;20.460;2023-03-31T10:39:41;6.47;;;2.67;;
65863;SDS011;52639;51.180;20.460;2023-03-31T10:43:49;6.40;;;3.45;;
65863;SDS011;52639;51.180;20.460;2023-03-31T10:47:54;8.68;;;5.05;;
65863;SDS011;52639;51.180;20.460;2023-03-31T10:51:58;10.10;;;5.03;;
65863;SDS011;52639;51.180;20.460;2023-03-31T10:56:05;6.25;;;2.78;;
65863;SDS011;52639;51.180;20.460;2023-03-31T11:00:19;9.07;;;3.80;;
65863;SDS011;52639;51.180;20.460;2023-03-31T11:04:38;9.52;;;3.17;;
65863;SDS011;52639;51.180;20.460;2023-03-31T11:08:55;8.43;;;4.13;;
65863;SDS011;52639;51.180;20.460;2023-03-31T11:13:09;4.82;;;2.63;;
65863;SDS011;52639;51.180;20.460;2023-03-31T11:17:25;6.88;;;2.70;;
65863;SDS011;52639;51.180;20.460;2023-03-31T11:21:40;5.70;;;2.75;;
65863;SDS011;52639;51.180;20.460;2023-03-31T11:25:51;4.35;;;2.05;;
65863;SDS011;52639;51.180;20.460;2023-03-31T11:30:01;7.45;;;3.08;;
65863;SDS011;52639;51.180;20.460;2023-03-31T11:34:36;6.35;;;3.92;;
65863;SDS011;52639;51.180;20.460;2023-03-31T11:38:58;6.45;;;3.00;;
65863;SDS011;52639;51.180;20.460;2023-03-31T11:43:13;4.95;;;2.60;;
65863;SDS011;52639;51.180;20.460;2023-03-31T11:47:23;5.53;;;2.80;;
65863;SDS011;52639;51.180;20.460;2023-03-31T11:51:40;7.10;;;3.03;;
65863;SDS011;52639;51.180;20.460;2023-03-31T11:55:49;6.90;;;3.08;;
65863;SDS011;52639;51.180;20.460;2023-03-31T11:59:56;7.40;;;3.30;;
65863;SDS011;52639;51.180;20.460;2023-03-31T12:04:02;6.05;;;3.00;;
65863;SDS011;52639;51.180;20.460;2023-03-31T12:08:11;5.53;;;3.13;;
65863;SDS011;52639;51.180;20.460;2023-03-31T12:12:18;9.95;;;4.35;;
65863;SDS011;52639;51.180;20.460;2023-03-31T12:16:24;7.78;;;4.22;;
65863;SDS011;52639;51.180;20.460;2023-03-31T12:20:35;7.27;;;3.60;;
65863;SDS011;52639;51.180;20.460;2023-03-31T12:24:43;7.13;;;3.75;;
65863;SDS011;52639;51.180;20.460;2023-03-31T12:28:54;9.25;;;3.53;;
65863;SDS011;52639;51.180;20.460;2023-03-31T12:33:02;4.55;;;3.17;;
65863;SDS011;52639;51.180;20.460;2023-03-31T12:37:15;6.13;;;2.80;;
65863;SDS011;52639;51.180;20.460;2023-03-31T12:41:37;7.25;;;3.25;;
65863;SDS011;52639;51.180;20.460;2023-03-31T12:45:48;6.22;;;3.25;;
65863;SDS011;52639;51.180;20.460;2023-03-31T12:50:08;5.05;;;2.92;;
65863;SDS011;52639;51.180;20.460;2023-03-31T12:54:48;6.18;;;3.10;;
65863;SDS011;52639;51.180;20.460;2023-03-31T12:59:21;4.38;;;2.40;;
65863;SDS011;52639;51.180;20.460;2023-03-31T13:03:41;6.10;;;2.90;;
65863;SDS011;52639;51.180;20.460;2023-03-31T13:07:46;12.07;;;5.80;;
65863;SDS011;52639;51.180;20.460;2023-03-31T13:11:49;8.73;;;3.83;;
65863;SDS011;52639;51.180;20.460;2023-03-31T13:15:54;6.35;;;2.90;;
65863;SDS011;52639;51.180;20.460;2023-03-31T13:24:19;9.75;;;3.25;;
65863;SDS011;52639;51.180;20.460;2023-03-31T13:28:31;6.13;;;2.65;;
65863;SDS011;52639;51.180;20.460;2023-03-31T13:32:40;5.32;;;2.72;;
65863;SDS011;52639;51.180;20.460;2023-03-31T13:36:57;7.97;;;2.70;;
65863;SDS011;52639;51.180;20.460;2023-03-31T13:41:14;5.18;;;2.67;;
65863;SDS011;52639;51.180;20.460;2023-03-31T13:45:41;5.28;;;2.58;;
65863;SDS011;52639;51.180;20.460;2023-03-31T13:50:04;5.38;;;2.50;;
65863;SDS011;52639;51.180;20.460;2023-03-31T13:59:20;4.82;;;2.47;;
65863;SDS011;52639;51.180;20.460;2023-03-31T14:03:48;6.55;;;2.88;;
65863;SDS011;52639;51.180;20.460;2023-03-31T14:08:02;5.65;;;2.40;;
65863;SDS011;52639;51.180;20.460;2023-03-31T14:12:18;7.68;;;2.50;;
65863;SDS011;52639;51.180;20.460;2023-03-31T14:16:23;5.38;;;2.10;;
65863;SDS011;52639;51.180;20.460;2023-03-31T14:20:31;9.23;;;2.85;;
65863;SDS011;52639;51.180;20.460;2023-03-31T14:24:43;5.85;;;2.72;;
65863;SDS011;52639;51.180;20.460;2023-03-31T14:28:59;4.88;;;2.13;;
65863;SDS011;52639;51.180;20.460;2023-03-31T14:33:21;4.65;;;1.88;;
65863;SDS011;52639;51.180;20.460;2023-03-31T14:37:34;5.90;;;2.40;;
65863;SDS011;52639;51.180;20.460;2023-03-31T14:41:38;6.63;;;3.15;;
65863;SDS011;52639;51.180;20.460;2023-03-31T14:45:44;5.55;;;2.70;;
65863;SDS011;52639;51.180;20.460;2023-03-31T14:49:47;8.27;;;3.03;;
65863;SDS011;52639;51.180;20.460;2023-03-31T14:54:01;8.02;;;3.10;;
65863;SDS011;52639;51.180;20.460;2023-03-31T14:58:05;7.97;;;3.20;;
65863;SDS011;52639;51.180;20.460;2023-03-31T15:02:13;10.30;;;5.13;;
65863;SDS011;52639;51.180;20.460;2023-03-31T15:06:19;11.13;;;4.35;;
65863;SDS011;52639;51.180;20.460;2023-03-31T15:10:34;10.85;;;5.25;;
65863;SDS011;52639;51.180;20.460;2023-03-31T15:14:41;9.93;;;4.13;;
65863;SDS011;52639;51.180;20.460;2023-03-31T15:18:47;6.47;;;3.33;;
65863;SDS011;52639;51.180;20.460;2023-03-31T15:22:54;7.78;;;3.70;;
65863;SDS011;52639;51.180;20.460;2023-03-31T15:26:59;8.55;;;3.28;;
65863;SDS011;52639;51.180;20.460;2023-03-31T15:31:10;8.40;;;3.40;;
65863;SDS011;52639;51.180;20.460;2023-03-31T15:35:19;6.85;;;3.20;;
65863;SDS011;52639;51.180;20.460;2023-03-31T15:39:24;6.45;;;3.40;;
65863;SDS011;52639;51.180;20.460;2023-03-31T15:43:30;6.95;;;3.03;;
65863;SDS011;52639;51.180;20.460;2023-03-31T15:47:48;6.80;;;3.35;;
65863;SDS011;52639;51.180;20.460;2023-03-31T15:51:53;4.82;;;3.13;;
65863;SDS011;52639;51.180;20.460;2023-03-31T15:55:57;8.48;;;3.70;;
65863;SDS011;52639;51.180;20.460;2023-03-31T16:00:02;6.32;;;3.47;;
65863;SDS011;52639;51.180;20.460;2023-03-31T16:04:09;6.85;;;3.40;;
65863;SDS011;52639;51.180;20.460;2023-03-31T16:08:15;18.38;;;9.13;;
65863;SDS011;52639;51.180;20.460;2023-03-31T16:12:23;9.77;;;4.63;;
65863;SDS011;52639;51.180;20.460;2023-03-31T16:16:30;7.25;;;3.80;;
65863;SDS011;52639;51.180;20.460;2023-03-31T16:20:36;13.80;;;5.80;;
65863;SDS011;52639;51.180;20.460;2023-03-31T16:24:42;12.10;;;6.07;;
65863;SDS011;52639;51.180;20.460;2023-03-31T16:28:48;7.38;;;3.63;;
65863;SDS011;52639;51.180;20.460;2023-03-31T16:32:58;10.00;;;4.93;;
65863;SDS011;52639;51.180;20.460;2023-03-31T16:37:04;8.40;;;5.13;;
65863;SDS011;52639;51.180;20.460;2023-03-31T16:41:11;13.05;;;5.07;;
65863;SDS011;52639;51.180;20.460;2023-03-31T16:45:16;8.88;;;4.57;;
65863;SDS011;52639;51.180;20.460;2023-03-31T16:49:21;9.48;;;4.00;;
65863;SDS011;52639;51.180;20.460;2023-03-31T16:53:26;21.05;;;14.93;;
65863;SDS011;52639;51.180;20.460;2023-03-31T16:57:31;14.80;;;9.60;;
65863;SDS011;52639;51.180;20.460;2023-03-31T17:01:34;13.50;;;9.10;;
65863;SDS011;52639;51.180;20.460;2023-03-31T17:05:37;9.98;;;5.80;;
65863;SDS011;52639;51.180;20.460;2023-03-31T17:09:42;4.63;;;3.40;;
65863;SDS011;52639;51.180;20.460;2023-03-31T17:13:47;12.65;;;5.43;;
65863;SDS011;52639;51.180;20.460;2023-03-31T17:17:51;14.15;;;7.78;;
65863;SDS011;52639;51.180;20.460;2023-03-31T17:21:54;9.40;;;6.03;;
65863;SDS011;52639;51.180;20.460;2023-03-31T17:26:03;12.50;;;6.93;;
65863;SDS011;52639;51.180;20.460;2023-03-31T17:30:10;17.10;;;9.07;;
65863;SDS011;52639;51.180;20.460;2023-03-31T17:34:14;13.75;;;6.13;;
65863;SDS011;52639;51.180;20.460;2023-03-31T17:38:18;14.35;;;7.13;;
65863;SDS011;52639;51.180;20.460;2023-03-31T17:42:24;17.58;;;12.13;;
65863;SDS011;52639;51.180;20.460;2023-03-31T17:46:29;17.95;;;8.65;;
65863;SDS011;52639;51.180;20.460;2023-03-31T17:50:36;24.88;;;15.38;;
65863;SDS011;52639;51.180;20.460;2023-03-31T17:54:47;11.73;;;6.68;;
65863;SDS011;52639;51.180;20.460;2023-03-31T17:58:53;12.55;;;6.35;;
65863;SDS011;52639;51.180;20.460;2023-03-31T18:03:11;14.23;;;8.57;;
65863;SDS011;52639;51.180;20.460;2023-03-31T18:07:22;14.02;;;7.85;;
65863;SDS011;52639;51.180;20.460;2023-03-31T18:11:29;14.20;;;6.03;;
65863;SDS011;52639;51.180;20.460;2023-03-31T18:15:37;15.00;;;6.97;;
65863;SDS011;52639;51.180;20.460;2023-03-31T18:19:48;25.35;;;18.42;;
65863;SDS011;52639;51.180;20.460;2023-03-31T18:23:52;17.52;;;12.48;;
65863;SDS011;52639;51.180;20.460;2023-03-31T18:27:58;17.83;;;10.15;;
65863;SDS011;52639;51.180;20.460;2023-03-31T18:32:04;18.02;;;9.82;;
65863;SDS011;52639;51.180;20.460;2023-03-31T18:36:12;21.63;;;10.85;;
65863;SDS011;52639;51.180;20.460;2023-03-31T18:40:19;16.27;;;8.95;;
65863;SDS011;52639;51.180;20.460;2023-03-31T18:44:24;16.50;;;8.38;;
65863;SDS011;52639;51.180;20.460;2023-03-31T18:48:32;14.30;;;9.32;;
65863;SDS011;52639;51.180;20.460;2023-03-31T18:52:39;17.15;;;10.65;;
65863;SDS011;52639;51.180;20.460;2023-03-31T18:56:45;20.63;;;10.95;;
65863;SDS011;52639;51.180;20.460;2023-03-31T19:00:50;63.05;;;29.55;;
65863;SDS011;52639;51.180;20.460;2023-03-31T19:04:57;32.65;;;17.25;;
65863;SDS011;52639;51.180;20.460;2023-03-31T19:09:05;36.92;;;23.60;;
65863;SDS011;52639;51.180;20.460;2023-03-31T19:13:11;22.23;;;9.85;;
65863;SDS011;52639;51.180;20.460;2023-03-31T19:17:17;24.48;;;11.63;;
65863;SDS011;52639;51.180;20.460;2023-03-31T19:21:24;25.25;;;12.40;;
65863;SDS011;52639;51.180;20.460;2023-03-31T19:25:32;20.10;;;10.38;;
65863;SDS011;52639;51.180;20.460;2023-03-31T19:29:36;18.70;;;9.93;;
65863;SDS011;52639;51.180;20.460;2023-03-31T19:33:42;19.67;;;9.60;;
65863;SDS011;52639;51.180;20.460;2023-03-31T19:37:50;18.80;;;8.55;;
65863;SDS011;52639;51.180;20.460;2023-03-31T19:41:58;17.92;;;9.23;;
65863;SDS011;52639;51.180;20.460;2023-03-31T19:46:03;17.83;;;8.52;;
65863;SDS011;52639;51.180;20.460;2023-03-31T19:50:09;13.20;;;7.03;;
65863;SDS011;52639;51.180;20.460;2023-03-31T19:54:16;16.92;;;8.75;;
65863;SDS011;52639;51.180;20.460;2023-03-31T19:58:21;16.33;;;8.27;;
65863;SDS011;52639;51.180;20.460;2023-03-31T20:02:26;14.75;;;8.13;;
65863;SDS011;52639;51.180;20.460;2023-03-31T20:06:30;16.75;;;8.32;;
65863;SDS011;52639;51.180;20.460;2023-03-31T20:10:39;21.02;;;7.35;;
65863;SDS011;52639;51.180;20.460;2023-03-31T20:14:44;22.50;;;9.70;;
65863;SDS011;52639;51.180;20.460;2023-03-31T20:18:51;21.25;;;9.00;;
65863;SDS011;52639;51.180;20.460;2023-03-31T20:22:57;19.50;;;9.15;;
65863;SDS011;52639;51.180;20.460;2023-03-31T20:27:05;12.20;;;6.68;;
65863;SDS011;52639;51.180;20.460;2023-03-31T20:31:10;19.08;;;9.35;;
65863;SDS011;52639;51.180;20.460;2023-03-31T20:35:19;25.83;;;11.30;;
65863;SDS011;52639;51.180;20.460;2023-03-31T20:39:23;49.05;;;19.50;;
65863;SDS011;52639;51.180;20.460;2023-03-31T20:43:30;26.77;;;10.95;;
65863;SDS011;52639;51.180;20.460;2023-03-31T20:47:36;49.80;;;18.40;;
65863;SDS011;52639;51.180;20.460;2023-03-31T20:51:39;34.63;;;13.68;;
65863;SDS011;52639;51.180;20.460;2023-03-31T20:55:42;20.17;;;8.45;;
65863;SDS011;52639;51.180;20.460;2023-03-31T20:59:49;27.95;;;13.65;;
65863;SDS011;52639;51.180;20.460;2023-03-31T21:03:52;45.35;;;25.83;;
65863;SDS011;52639;51.180;20.460;2023-03-31T21:07:59;12.50;;;6.25;;
65863;SDS011;52639;51.180;20.460;2023-03-31T21:12:02;13.25;;;5.28;;
65863;SDS011;52639;51.180;20.460;2023-03-31T21:16:07;11.82;;;5.07;;
65863;SDS011;52639;51.180;20.460;2023-03-31T21:20:10;12.90;;;5.65;;
65863;SDS011;52639;51.180;20.460;2023-03-31T21:24:13;12.60;;;5.28;;
65863;SDS011;52639;51.180;20.460;2023-03-31T21:28:17;14.80;;;6.18;;
65863;SDS011;52639;51.180;20.460;2023-03-31T21:32:23;26.98;;;12.45;;
65863;SDS011;52639;51.180;20.460;2023-03-31T21:36:26;27.75;;;13.82;;
65863;SDS011;52639;51.180;20.460;2023-03-31T21:40:29;37.63;;;20.27;;
65863;SDS011;52639;51.180;20.460;2023-03-31T21:44:32;28.70;;;12.93;;
65863;SDS011;52639;51.180;20.460;2023-03-31T21:48:36;13.60;;;6.82;;
65863;SDS011;52639;51.180;20.460;2023-03-31T21:52:39;14.80;;;6.25;;
65863;SDS011;52639;51.180;20.460;2023-03-31T21:56:42;16.15;;;6.28;;
65863;SDS011;52639;51.180;20.460;2023-03-31T22:00:45;16.92;;;8.57;;
65863;SDS011;52639;51.180;20.460;2023-03-31T22:04:49;15.88;;;8.50;;
65863;SDS011;52639;51.180;20.460;2023-03-31T22:08:52;21.45;;;9.07;;
65863;SDS011;52639;51.180;20.460;2023-03-31T22:12:55;16.85;;;7.75;;
65863;SDS011;52639;51.180;20.460;2023-03-31T22:16:58;24.00;;;10.43;;
65863;SDS011;52639;51.180;20.460;2023-03-31T22:21:03;27.33;;;12.40;;
65863;SDS011;52639;51.180;20.460;2023-03-31T22:25:15;15.93;;;9.07;;
65863;SDS011;52639;51.180;20.460;2023-03-31T22:29:18;16.52;;;8.45;;
65863;SDS011;52639;51.180;20.460;2023-03-31T22:33:21;16.15;;;7.10;;
65863;SDS011;52639;51.180;20.460;2023-03-31T22:37:25;20.33;;;7.93;;
65863;SDS011;52639;51.180;20.460;2023-03-31T22:41:28;19.10;;;7.57;;
65863;SDS011;52639;51.180;20.460;2023-03-31T22:45:31;18.75;;;7.03;;
65863;SDS011;52639;51.180;20.460;2023-03-31T22:49:37;15.50;;;6.63;;
65863;SDS011;52639;51.180;20.460;2023-03-31T22:53:42;14.00;;;6.53;;
65863;SDS011;52639;51.180;20.460;2023-03-31T22:57:45;13.40;;;5.70;;
65863;SDS011;52639;51.180;20.460;2023-03-31T23:01:48;13.00;;;6.30;;
65863;SDS011;52639;51.180;20.460;2023-03-31T23:05:52;11.65;;;6.38;;
65863;SDS011;52639;51.180;20.460;2023-03-31T23:09:57;17.20;;;7.38;;
65863;SDS011;52639;51.180;20.460;2023-03-31T23:14:00;16.48;;;6.85;;
65863;SDS011;52639;51.180;20.460;2023-03-31T23:18:04;22.38;;;8.65;;
65863;SDS011;52639;51.180;20.460;2023-03-31T23:22:07;36.47;;;12.57;;
65863;SDS011;52639;51.180;20.460;2023-03-31T23:26:12;20.83;;;9.50;;
65863;SDS011;52639;51.180;20.460;2023-03-31T23:30:15;16.13;;;7.45;;
65863;SDS011;52639;51.180;20.460;2023-03-31T23:34:18;19.90;;;8.80;;
65863;SDS011;52639;51.180;20.460;2023-03-31T23:38:21;16.08;;;8.05;;
65863;SDS011;52639;51.180;20.460;2023-03-31T23:42:26;18.33;;;8.70;;
65863;SDS011;52639;51.180;20.460;2023-03-31T23:46:29;17.25;;;7.40;;
65863;SDS011;52639;51.180;20.460;2023-03-31T23:50:33;11.95;;;6.53;;
65863;SDS011;52639;51.180;20.460;2023-03-31T23:54:36;13.85;;;8.00;;
65863;SDS011;52639;51.180;20.460;2023-03-31T23:58:40;16.95;;;7.80;;
